createdAt,value
2017-04-28T00:00:20.032Z,0
2017-04-28T00:01:29.052Z,0
2017-04-28T00:02:38.112Z,0
2017-04-28T00:03:47.499Z,0
2017-04-28T00:04:56.270Z,0
2017-04-28T00:06:05.344Z,0
2017-04-28T00:07:14.663Z,0
2017-04-28T00:08:24.072Z,0
2017-04-28T00:09:33.444Z,0
2017-04-28T00:10:42.229Z,0
2017-04-28T00:11:51.620Z,0
2017-04-28T00:13:00.998Z,0
2017-04-28T00:14:10.374Z,0
2017-04-28T00:15:20.051Z,0
2017-04-28T00:16:28.830Z,0
2017-04-28T00:17:37.897Z,0
2017-04-28T00:18:47.585Z,0
2017-04-28T00:19:56.964Z,0
2017-04-28T00:21:06.648Z,0
2017-04-28T00:22:15.710Z,0
2017-04-28T00:23:24.776Z,0
2017-04-28T00:24:34.156Z,0
2017-04-28T00:25:43.171Z,0
2017-04-28T00:26:51.923Z,0
2017-04-28T00:28:01.292Z,0
2017-04-28T00:29:10.059Z,0
2017-04-28T00:30:19.125Z,0
2017-04-28T00:31:27.845Z,0
2017-04-28T00:32:36.906Z,0
2017-04-28T00:33:45.933Z,0
2017-04-28T00:34:55.600Z,0
2017-04-28T00:36:04.973Z,0
2017-04-28T00:37:14.048Z,0
2017-04-28T00:38:23.070Z,0
2017-04-28T00:39:32.749Z,0
2017-04-28T00:40:41.816Z,0
2017-04-28T00:41:50.569Z,0
2017-04-28T00:43:00.254Z,0
2017-04-28T00:44:09.329Z,0
2017-04-28T00:45:18.038Z,0
2017-04-28T00:46:26.815Z,0
2017-04-28T00:47:35.888Z,0
2017-04-28T00:48:45.869Z,0
2017-04-28T00:49:54.895Z,0
2017-04-28T00:51:03.962Z,0
2017-04-28T00:52:13.344Z,0
2017-04-28T00:53:23.029Z,0
2017-04-28T00:54:32.410Z,0
2017-04-28T00:55:41.483Z,0
2017-04-28T00:56:50.561Z,0
2017-04-28T00:58:00.185Z,0
2017-04-28T00:59:09.232Z,0
2017-04-28T01:00:18.303Z,0
2017-04-28T01:01:27.061Z,0
2017-04-28T01:02:36.444Z,0
2017-04-28T01:03:45.824Z,0
2017-04-28T01:04:54.599Z,0
2017-04-28T01:06:04.294Z,0
2017-04-28T01:07:13.005Z,0
2017-04-28T01:08:22.099Z,0
2017-04-28T01:09:31.482Z,0
2017-04-28T01:10:40.193Z,0
2017-04-28T01:11:49.505Z,0
2017-04-28T01:12:58.567Z,0
2017-04-28T01:14:07.289Z,0
2017-04-28T01:15:16.299Z,0
2017-04-28T01:16:25.052Z,0
2017-04-28T01:17:34.435Z,0
2017-04-28T01:18:43.804Z,0
2017-04-28T01:19:53.432Z,0
2017-04-28T01:21:03.134Z,0
2017-04-28T01:22:12.206Z,0
2017-04-28T01:23:21.584Z,0
2017-04-28T01:24:31.286Z,0
2017-04-28T01:25:40.348Z,0
2017-04-28T01:26:49.426Z,0
2017-04-28T01:27:58.814Z,0
2017-04-28T01:29:08.186Z,0
2017-04-28T01:30:16.963Z,0
2017-04-28T01:31:26.046Z,0
2017-04-28T01:32:34.806Z,0
2017-04-28T01:33:43.878Z,0
2017-04-28T01:34:53.207Z,0
2017-04-28T01:36:02.872Z,0
2017-04-28T01:37:11.948Z,0
2017-04-28T01:38:21.067Z,0
2017-04-28T01:39:29.830Z,0
2017-04-28T01:40:38.583Z,0
2017-04-28T01:41:47.669Z,0
2017-04-28T01:42:56.707Z,0
2017-04-28T01:44:05.772Z,0
2017-04-28T01:45:14.684Z,0
2017-04-28T01:46:23.505Z,0
2017-04-28T01:47:32.887Z,0
2017-04-28T01:48:42.268Z,0
2017-04-28T01:49:51.340Z,0
2017-04-28T01:51:00.744Z,0
2017-04-28T01:52:09.493Z,0
2017-04-28T01:53:19.052Z,0
2017-04-28T01:54:28.743Z,0
2017-04-28T01:55:38.127Z,0
2017-04-28T01:56:47.200Z,0
2017-04-28T01:57:56.580Z,0
2017-04-28T01:59:05.911Z,0
2017-04-28T02:00:14.975Z,0
2017-04-28T02:01:24.037Z,0
2017-04-28T02:02:33.108Z,0
2017-04-28T02:03:42.184Z,0
2017-04-28T02:04:51.771Z,0
2017-04-28T02:06:01.175Z,0
2017-04-28T02:07:10.559Z,0
2017-04-28T02:08:19.638Z,0
2017-04-28T02:09:28.710Z,0
2017-04-28T02:10:37.472Z,0
2017-04-28T02:11:46.240Z,0
2017-04-28T02:12:55.623Z,0
2017-04-28T02:14:05.004Z,0
2017-04-28T02:15:13.799Z,0
2017-04-28T02:16:22.884Z,0
2017-04-28T02:17:31.647Z,0
2017-04-28T02:18:40.402Z,0
2017-04-28T02:19:49.483Z,0
2017-04-28T02:20:59.169Z,0
2017-04-28T02:22:08.556Z,0
2017-04-28T02:23:17.942Z,0
2017-04-28T02:24:26.731Z,0
2017-04-28T02:25:36.139Z,0
2017-04-28T02:26:45.485Z,0
2017-04-28T02:27:54.571Z,0
2017-04-28T02:29:03.916Z,0
2017-04-28T02:30:12.981Z,0
2017-04-28T02:31:22.076Z,0
2017-04-28T02:32:31.786Z,0
2017-04-28T02:33:41.190Z,0
2017-04-28T02:34:50.285Z,0
2017-04-28T02:35:59.629Z,0
2017-04-28T02:37:08.702Z,0
2017-04-28T02:38:17.497Z,0
2017-04-28T02:39:26.581Z,0
2017-04-28T02:40:35.363Z,0
2017-04-28T02:41:45.062Z,0
2017-04-28T02:42:54.149Z,0
2017-04-28T02:44:03.497Z,0
2017-04-28T02:45:12.827Z,0
2017-04-28T02:46:21.803Z,0
2017-04-28T02:47:30.919Z,0
2017-04-28T02:48:39.699Z,0
2017-04-28T02:49:49.101Z,0
2017-04-28T02:50:58.502Z,0
2017-04-28T02:52:07.288Z,0
2017-04-28T02:53:16.631Z,0
2017-04-28T02:54:26.583Z,0
2017-04-28T02:55:36.294Z,0
2017-04-28T02:56:45.027Z,0
2017-04-28T02:57:54.727Z,0
2017-04-28T02:59:04.377Z,0
2017-04-28T03:00:13.451Z,0
2017-04-28T03:01:22.546Z,0
2017-04-28T03:02:31.280Z,0
2017-04-28T03:03:40.623Z,0
2017-04-28T03:04:50.029Z,0
2017-04-28T03:05:59.738Z,0
2017-04-28T03:07:08.475Z,0
2017-04-28T03:08:17.500Z,0
2017-04-28T03:09:26.880Z,0
2017-04-28T03:10:35.973Z,0
2017-04-28T03:11:45.363Z,0
2017-04-28T03:12:54.458Z,0
2017-04-28T03:14:03.485Z,0
2017-04-28T03:15:12.556Z,0
2017-04-28T03:16:21.840Z,0
2017-04-28T03:17:30.913Z,0
2017-04-28T03:18:40.617Z,0
2017-04-28T03:19:49.339Z,0
2017-04-28T03:20:58.726Z,0
2017-04-28T03:22:07.810Z,0
2017-04-28T03:23:16.910Z,0
2017-04-28T03:24:26.652Z,0
2017-04-28T03:25:35.744Z,0
2017-04-28T03:26:44.835Z,0
2017-04-28T03:27:54.524Z,0
2017-04-28T03:29:03.877Z,0
2017-04-28T03:30:12.955Z,0
2017-04-28T03:31:22.190Z,0
2017-04-28T03:32:30.995Z,0
2017-04-28T03:33:40.393Z,0
2017-04-28T03:34:49.172Z,0
2017-04-28T03:35:58.233Z,0
2017-04-28T03:37:07.607Z,0
2017-04-28T03:38:16.999Z,0
2017-04-28T03:39:27.009Z,0
2017-04-28T03:40:37.032Z,0
2017-04-28T03:41:46.108Z,0
2017-04-28T03:42:55.201Z,0
2017-04-28T03:44:04.239Z,0
2017-04-28T03:45:13.313Z,0
2017-04-28T03:46:22.145Z,0
2017-04-28T03:47:30.936Z,4
2017-04-28T03:48:40.375Z,4
2017-04-28T03:49:49.822Z,0
2017-04-28T03:50:58.855Z,0
2017-04-28T03:52:07.874Z,4
2017-04-28T03:53:16.672Z,4
2017-04-28T03:54:25.765Z,4
2017-04-28T03:55:35.716Z,8
2017-04-28T03:56:44.790Z,4
2017-04-28T03:57:53.587Z,8
2017-04-28T03:59:02.986Z,8
2017-04-28T04:00:12.082Z,8
2017-04-28T04:01:21.486Z,12
2017-04-28T04:02:30.274Z,12
2017-04-28T04:03:39.358Z,12
2017-04-28T04:04:48.765Z,12
2017-04-28T04:05:57.804Z,20
2017-04-28T04:07:06.523Z,20
2017-04-28T04:08:15.894Z,20
2017-04-28T04:09:25.905Z,24
2017-04-28T04:10:35.006Z,28
2017-04-28T04:11:43.792Z,28
2017-04-28T04:12:53.132Z,28
2017-04-28T04:14:02.814Z,32
2017-04-28T04:15:11.892Z,36
2017-04-28T04:16:20.978Z,40
2017-04-28T04:17:30.019Z,44
2017-04-28T04:18:39.423Z,48
2017-04-28T04:19:48.520Z,52
2017-04-28T04:20:57.311Z,56
2017-04-28T04:22:06.403Z,60
2017-04-28T04:23:15.179Z,64
2017-04-28T04:24:24.278Z,68
2017-04-28T04:25:33.980Z,72
2017-04-28T04:26:43.078Z,80
2017-04-28T04:27:52.470Z,84
2017-04-28T04:29:02.212Z,88
2017-04-28T04:30:10.991Z,92
2017-04-28T04:31:19.771Z,100
2017-04-28T04:32:28.854Z,104
2017-04-28T04:33:38.255Z,108
2017-04-28T04:34:47.561Z,116
2017-04-28T04:35:56.662Z,120
2017-04-28T04:37:05.764Z,128
2017-04-28T04:38:14.850Z,132
2017-04-28T04:39:23.987Z,140
2017-04-28T04:40:33.430Z,144
2017-04-28T04:41:42.502Z,152
2017-04-28T04:42:51.901Z,156
2017-04-28T04:44:00.996Z,160
2017-04-28T04:45:09.783Z,168
2017-04-28T04:46:18.575Z,172
2017-04-28T04:47:27.975Z,180
2017-04-28T04:48:36.770Z,188
2017-04-28T04:49:46.481Z,196
2017-04-28T04:50:55.252Z,204
2017-04-28T04:52:04.044Z,212
2017-04-28T04:53:13.148Z,216
2017-04-28T04:54:22.562Z,224
2017-04-28T04:55:31.655Z,232
2017-04-28T04:56:40.694Z,240
2017-04-28T04:57:49.725Z,248
2017-04-28T04:58:58.440Z,256
2017-04-28T05:00:07.201Z,260
2017-04-28T05:01:15.971Z,272
2017-04-28T05:02:25.378Z,276
2017-04-28T05:03:34.720Z,284
2017-04-28T05:04:44.411Z,296
2017-04-28T05:05:53.804Z,300
2017-04-28T05:07:02.888Z,308
2017-04-28T05:08:12.592Z,320
2017-04-28T05:09:21.694Z,324
2017-04-28T05:10:30.742Z,332
2017-04-28T05:11:39.526Z,340
2017-04-28T05:12:49.170Z,344
2017-04-28T05:13:58.813Z,352
2017-04-28T05:15:07.589Z,356
2017-04-28T05:16:16.376Z,364
2017-04-28T05:17:25.154Z,372
2017-04-28T05:18:34.239Z,380
2017-04-28T05:19:43.348Z,388
2017-04-28T05:20:52.135Z,400
2017-04-28T05:22:01.164Z,408
2017-04-28T05:23:10.243Z,420
2017-04-28T05:24:19.661Z,432
2017-04-28T05:25:28.404Z,444
2017-04-28T05:26:37.789Z,460
2017-04-28T05:27:47.234Z,472
2017-04-28T05:28:55.968Z,484
2017-04-28T05:30:05.362Z,492
2017-04-28T05:31:14.170Z,504
2017-04-28T05:32:23.273Z,520
2017-04-28T05:33:32.990Z,536
2017-04-28T05:34:42.328Z,552
2017-04-28T05:35:51.406Z,564
2017-04-28T05:37:01.390Z,580
2017-04-28T05:38:10.183Z,592
2017-04-28T05:39:19.682Z,608
2017-04-28T05:40:29.077Z,624
2017-04-28T05:41:38.178Z,640
2017-04-28T05:42:47.572Z,664
2017-04-28T05:43:56.981Z,684
2017-04-28T05:45:06.386Z,696
2017-04-28T05:46:15.119Z,708
2017-04-28T05:47:24.806Z,728
2017-04-28T05:48:34.206Z,740
2017-04-28T05:49:43.305Z,752
2017-04-28T05:50:52.043Z,772
2017-04-28T05:52:01.120Z,788
2017-04-28T05:53:10.146Z,796
2017-04-28T05:54:19.219Z,812
2017-04-28T05:55:28.328Z,828
2017-04-28T05:56:37.114Z,836
2017-04-28T05:57:46.215Z,852
2017-04-28T05:58:55.918Z,864
2017-04-28T06:00:05.008Z,880
2017-04-28T06:01:14.101Z,892
2017-04-28T06:02:23.509Z,916
2017-04-28T06:03:32.299Z,928
2017-04-28T06:04:41.990Z,948
2017-04-28T06:05:51.034Z,964
2017-04-28T06:06:59.814Z,976
2017-04-28T06:08:08.898Z,984
2017-04-28T06:09:17.994Z,1004
2017-04-28T06:10:27.392Z,1020
2017-04-28T06:11:36.488Z,1036
2017-04-28T06:12:45.856Z,1044
2017-04-28T06:13:54.621Z,1056
2017-04-28T06:15:04.276Z,1072
2017-04-28T06:16:13.335Z,1096
2017-04-28T06:17:22.363Z,1112
2017-04-28T06:18:31.420Z,1124
2017-04-28T06:19:40.808Z,1136
2017-04-28T06:20:50.212Z,1156
2017-04-28T06:21:59.248Z,1176
2017-04-28T06:23:08.580Z,1196
2017-04-28T06:24:17.652Z,1232
2017-04-28T06:25:27.052Z,1232
2017-04-28T06:26:35.838Z,1236
2017-04-28T06:27:44.623Z,1264
2017-04-28T06:28:53.662Z,1292
2017-04-28T06:30:02.881Z,1312
2017-04-28T06:31:11.965Z,1328
2017-04-28T06:32:21.359Z,1344
2017-04-28T06:33:30.150Z,1356
2017-04-28T06:34:38.934Z,1364
2017-04-28T06:35:47.726Z,1368
2017-04-28T06:36:56.811Z,1356
2017-04-28T06:38:06.204Z,1364
2017-04-28T06:39:15.853Z,1400
2017-04-28T06:40:24.878Z,1424
2017-04-28T06:41:33.942Z,1416
2017-04-28T06:42:42.743Z,1444
2017-04-28T06:43:51.516Z,1468
2017-04-28T06:45:00.597Z,1504
2017-04-28T06:46:09.683Z,1516
2017-04-28T06:47:18.467Z,1528
2017-04-28T06:48:27.558Z,1536
2017-04-28T06:49:36.341Z,1564
2017-04-28T06:50:45.683Z,1580
2017-04-28T06:51:54.765Z,1584
2017-04-28T06:53:04.673Z,1632
2017-04-28T06:54:14.077Z,1660
2017-04-28T06:55:23.873Z,1712
2017-04-28T06:56:32.976Z,1848
2017-04-28T06:57:42.377Z,2084
2017-04-28T06:58:51.783Z,2024
2017-04-28T07:00:00.826Z,2032
2017-04-28T07:01:09.893Z,2060
2017-04-28T07:02:19.228Z,1880
2017-04-28T07:03:28.614Z,1896
2017-04-28T07:04:37.346Z,1888
2017-04-28T07:05:46.115Z,1780
2017-04-28T07:06:54.901Z,1952
2017-04-28T07:08:03.705Z,1996
2017-04-28T07:09:12.808Z,1984
2017-04-28T07:10:22.206Z,2048
2017-04-28T07:11:30.990Z,1908
2017-04-28T07:12:39.764Z,1720
2017-04-28T07:13:49.467Z,1728
2017-04-28T07:14:58.865Z,1884
2017-04-28T07:16:08.555Z,2388
2017-04-28T07:17:18.260Z,2376
2017-04-28T07:18:27.361Z,2228
2017-04-28T07:19:36.144Z,2068
2017-04-28T07:20:45.232Z,1880
2017-04-28T07:21:54.323Z,2220
2017-04-28T07:23:03.757Z,2176
2017-04-28T07:24:12.844Z,2004
2017-04-28T07:25:21.930Z,2308
2017-04-28T07:26:30.703Z,2280
2017-04-28T07:27:39.803Z,2284
2017-04-28T07:28:49.209Z,2296
2017-04-28T07:29:57.995Z,2408
2017-04-28T07:31:07.397Z,2440
2017-04-28T07:32:16.499Z,2456
2017-04-28T07:33:25.593Z,2716
2017-04-28T07:34:34.997Z,2692
2017-04-28T07:35:44.401Z,2940
2017-04-28T07:36:53.192Z,3164
2017-04-28T07:38:02.589Z,3116
2017-04-28T07:39:11.685Z,3508
2017-04-28T07:40:20.771Z,3240
2017-04-28T07:41:29.555Z,2356
2017-04-28T07:42:39.147Z,2264
2017-04-28T07:43:48.188Z,2220
2017-04-28T07:44:57.556Z,2416
2017-04-28T07:46:07.257Z,3060
2017-04-28T07:47:16.350Z,3596
2017-04-28T07:48:25.143Z,3124
2017-04-28T07:49:33.925Z,3620
2017-04-28T07:50:43.024Z,3268
2017-04-28T07:51:52.117Z,3492
2017-04-28T07:53:00.910Z,3936
2017-04-28T07:54:09.704Z,3808
2017-04-28T07:55:19.100Z,3080
2017-04-28T07:56:27.903Z,3248
2017-04-28T07:57:37.256Z,3544
2017-04-28T07:58:46.027Z,3344
2017-04-28T07:59:54.807Z,3436
2017-04-28T08:01:04.152Z,4004
2017-04-28T08:02:13.533Z,3476
2017-04-28T08:03:22.684Z,3204
2017-04-28T08:04:31.773Z,3184
2017-04-28T08:05:40.557Z,2592
2017-04-28T08:06:49.337Z,2880
2017-04-28T08:07:58.371Z,3128
2017-04-28T08:09:07.385Z,3204
2017-04-28T08:10:16.743Z,3632
2017-04-28T08:11:25.533Z,2924
2017-04-28T08:12:34.315Z,3224
2017-04-28T08:13:43.715Z,3368
2017-04-28T08:14:52.801Z,3164
2017-04-28T08:16:01.598Z,3180
2017-04-28T08:17:10.385Z,2916
2017-04-28T08:18:19.428Z,2736
2017-04-28T08:19:28.506Z,2688
2017-04-28T08:20:37.561Z,2504
2017-04-28T08:21:46.348Z,2628
2017-04-28T08:22:55.439Z,2580
2017-04-28T08:24:05.645Z,2468
2017-04-28T08:25:14.436Z,2288
2017-04-28T08:26:23.164Z,2404
2017-04-28T08:27:32.548Z,2528
2017-04-28T08:28:41.937Z,2840
2017-04-28T08:29:51.029Z,2812
2017-04-28T08:30:59.832Z,2940
2017-04-28T08:32:08.932Z,2900
2017-04-28T08:33:18.034Z,3076
2017-04-28T08:34:27.092Z,3132
2017-04-28T08:35:36.181Z,3196
2017-04-28T08:36:45.260Z,3324
2017-04-28T08:37:54.353Z,3224
2017-04-28T08:39:03.765Z,3248
2017-04-28T08:40:12.872Z,3428
2017-04-28T08:41:21.682Z,3592
2017-04-28T08:42:31.078Z,3680
2017-04-28T08:43:39.858Z,4140
2017-04-28T08:44:49.570Z,4800
2017-04-28T08:45:58.967Z,4292
2017-04-28T08:47:08.356Z,4100
2017-04-28T08:48:17.757Z,3952
2017-04-28T08:49:26.847Z,4032
2017-04-28T08:50:35.643Z,4332
2017-04-28T08:51:44.732Z,4644
2017-04-28T08:52:54.433Z,4104
2017-04-28T08:54:03.527Z,3728
2017-04-28T08:55:12.327Z,4228
2017-04-28T08:56:21.718Z,3596
2017-04-28T08:57:30.803Z,3028
2017-04-28T08:58:39.886Z,3844
2017-04-28T08:59:48.666Z,4584
2017-04-28T09:00:57.740Z,4692
2017-04-28T09:02:07.123Z,4280
2017-04-28T09:03:16.231Z,4700
2017-04-28T09:04:25.315Z,6200
2017-04-28T09:05:34.711Z,5776
2017-04-28T09:06:43.499Z,6292
2017-04-28T09:07:52.573Z,4760
2017-04-28T09:09:01.973Z,5692
2017-04-28T09:10:11.060Z,6216
2017-04-28T09:11:20.153Z,6580
2017-04-28T09:12:29.256Z,6660
2017-04-28T09:13:38.040Z,6552
2017-04-28T09:14:46.780Z,6484
2017-04-28T09:15:55.563Z,5988
2017-04-28T09:17:04.921Z,4932
2017-04-28T09:18:14.021Z,4116
2017-04-28T09:19:22.812Z,4620
2017-04-28T09:20:32.213Z,6168
2017-04-28T09:21:41.004Z,4628
2017-04-28T09:22:50.101Z,2020
2017-04-28T09:23:59.799Z,1656
2017-04-28T09:25:09.202Z,2148
2017-04-28T09:26:18.539Z,4004
2017-04-28T09:27:28.230Z,7048
2017-04-28T09:28:37.326Z,7668
2017-04-28T09:29:46.726Z,6580
2017-04-28T09:30:56.374Z,7692
2017-04-28T09:32:05.767Z,8284
2017-04-28T09:33:14.853Z,8712
2017-04-28T09:34:24.098Z,7840
2017-04-28T09:35:32.876Z,9256
2017-04-28T09:36:42.275Z,9132
2017-04-28T09:37:51.092Z,9312
2017-04-28T09:38:59.848Z,10644
2017-04-28T09:40:08.945Z,10360
2017-04-28T09:41:17.734Z,8116
2017-04-28T09:42:27.130Z,7728
2017-04-28T09:43:36.525Z,6024
2017-04-28T09:44:45.260Z,4852
2017-04-28T09:45:54.322Z,4912
2017-04-28T09:47:03.724Z,6396
2017-04-28T09:48:13.330Z,4780
2017-04-28T09:49:22.163Z,2156
2017-04-28T09:50:31.570Z,1580
2017-04-28T09:51:40.970Z,1584
2017-04-28T09:52:50.070Z,1616
2017-04-28T09:53:59.471Z,1704
2017-04-28T09:55:08.564Z,1772
2017-04-28T09:56:17.669Z,1604
2017-04-28T09:57:26.764Z,1388
2017-04-28T09:58:36.162Z,1280
2017-04-28T09:59:44.956Z,1240
2017-04-28T10:00:53.742Z,1512
2017-04-28T10:02:02.844Z,1948
2017-04-28T10:03:11.601Z,2364
2017-04-28T10:04:20.383Z,2420
2017-04-28T10:05:29.479Z,2476
2017-04-28T10:06:38.876Z,2740
2017-04-28T10:07:48.291Z,3424
2017-04-28T10:08:57.636Z,4388
2017-04-28T10:10:06.714Z,20064
2017-04-28T10:11:16.104Z,15168
2017-04-28T10:12:25.198Z,6116
2017-04-28T10:13:34.292Z,5980
2017-04-28T10:14:43.989Z,28160
2017-04-28T10:15:52.773Z,5208
2017-04-28T10:17:01.881Z,7536
2017-04-28T10:18:11.582Z,14952
2017-04-28T10:19:20.371Z,5196
2017-04-28T10:20:29.460Z,10524
2017-04-28T10:21:38.540Z,1988
2017-04-28T10:22:47.637Z,1932
2017-04-28T10:23:56.402Z,1984
2017-04-28T10:25:05.433Z,2692
2017-04-28T10:26:14.514Z,3952
2017-04-28T10:27:23.312Z,3396
2017-04-28T10:28:32.362Z,3460
2017-04-28T10:29:41.739Z,6620
2017-04-28T10:30:50.755Z,40992
2017-04-28T10:31:59.867Z,42048
2017-04-28T10:33:09.270Z,41344
2017-04-28T10:34:18.362Z,19232
2017-04-28T10:35:27.397Z,4880
2017-04-28T10:36:37.292Z,3072
2017-04-28T10:37:46.351Z,2820
2017-04-28T10:38:55.453Z,2604
2017-04-28T10:40:05.153Z,2056
2017-04-28T10:41:14.251Z,1836
2017-04-28T10:42:23.017Z,1692
2017-04-28T10:43:32.056Z,1692
2017-04-28T10:44:40.781Z,1684
2017-04-28T10:45:49.497Z,1896
2017-04-28T10:46:58.576Z,2756
2017-04-28T10:48:07.674Z,4404
2017-04-28T10:49:16.463Z,2756
2017-04-28T10:50:25.563Z,2116
2017-04-28T10:51:34.350Z,2132
2017-04-28T10:52:43.097Z,1936
2017-04-28T10:53:51.859Z,2384
2017-04-28T10:55:00.950Z,3332
2017-04-28T10:56:10.296Z,3400
2017-04-28T10:57:19.381Z,4340
2017-04-28T10:58:28.464Z,19776
2017-04-28T10:59:37.863Z,14272
2017-04-28T11:00:46.662Z,20352
2017-04-28T11:01:56.068Z,14860
2017-04-28T11:03:04.854Z,30496
2017-04-28T11:04:13.650Z,3956
2017-04-28T11:05:22.437Z,1892
2017-04-28T11:06:31.828Z,1468
2017-04-28T11:07:41.224Z,1480
2017-04-28T11:08:50.622Z,1512
2017-04-28T11:09:59.409Z,1288
2017-04-28T11:11:08.503Z,1156
2017-04-28T11:12:18.197Z,1136
2017-04-28T11:13:27.294Z,1084
2017-04-28T11:14:36.090Z,968
2017-04-28T11:15:44.914Z,892
2017-04-28T11:16:53.704Z,828
2017-04-28T11:18:02.794Z,764
2017-04-28T11:19:11.875Z,744
2017-04-28T11:20:21.530Z,776
2017-04-28T11:21:30.909Z,852
2017-04-28T11:22:40.000Z,952
2017-04-28T11:23:49.698Z,1268
2017-04-28T11:24:58.423Z,1296
2017-04-28T11:26:07.444Z,1404
2017-04-28T11:27:16.524Z,1940
2017-04-28T11:28:25.563Z,2172
2017-04-28T11:29:34.340Z,2280
2017-04-28T11:30:43.590Z,2096
2017-04-28T11:31:52.701Z,1764
2017-04-28T11:33:01.799Z,1492
2017-04-28T11:34:11.189Z,1392
2017-04-28T11:35:20.590Z,1412
2017-04-28T11:36:30.003Z,1524
2017-04-28T11:37:39.402Z,1720
2017-04-28T11:38:48.190Z,1696
2017-04-28T11:39:57.880Z,1496
2017-04-28T11:41:06.659Z,1304
2017-04-28T11:42:15.439Z,1164
2017-04-28T11:43:24.992Z,1088
2017-04-28T11:44:34.092Z,968
2017-04-28T11:45:43.192Z,860
2017-04-28T11:46:51.978Z,804
2017-04-28T11:48:00.767Z,824
2017-04-28T11:49:10.167Z,864
2017-04-28T11:50:19.210Z,844
2017-04-28T11:51:28.254Z,848
2017-04-28T11:52:37.643Z,860
2017-04-28T11:53:46.732Z,884
2017-04-28T11:54:56.029Z,932
2017-04-28T11:56:05.427Z,968
2017-04-28T11:57:14.223Z,988
2017-04-28T11:58:23.318Z,1032
2017-04-28T11:59:32.051Z,1072
2017-04-28T12:00:41.127Z,1116
2017-04-28T12:01:50.218Z,1132
2017-04-28T12:02:59.307Z,1100
2017-04-28T12:04:08.405Z,1096
2017-04-28T12:05:17.193Z,1052
2017-04-28T12:06:25.977Z,1036
2017-04-28T12:07:35.072Z,1048
2017-04-28T12:08:43.812Z,1036
2017-04-28T12:09:52.894Z,1016
2017-04-28T12:11:01.995Z,988
2017-04-28T12:12:11.085Z,980
2017-04-28T12:13:20.191Z,964
2017-04-28T12:14:28.921Z,932
2017-04-28T12:15:37.653Z,908
2017-04-28T12:16:47.342Z,896
2017-04-28T12:17:56.742Z,900
2017-04-28T12:19:05.529Z,944
2017-04-28T12:20:14.926Z,1044
2017-04-28T12:21:24.023Z,1068
2017-04-28T12:22:33.138Z,1076
2017-04-28T12:23:42.846Z,1104
2017-04-28T12:24:52.234Z,1144
2017-04-28T12:26:01.017Z,1176
2017-04-28T12:27:09.806Z,1284
2017-04-28T12:28:18.599Z,1276
2017-04-28T12:29:27.707Z,1176
2017-04-28T12:30:37.657Z,1072
2017-04-28T12:31:46.424Z,1004
2017-04-28T12:32:56.124Z,980
2017-04-28T12:34:05.833Z,992
2017-04-28T12:35:15.548Z,1084
2017-04-28T12:36:24.946Z,1232
2017-04-28T12:37:34.043Z,1388
2017-04-28T12:38:43.139Z,1424
2017-04-28T12:39:52.228Z,1336
2017-04-28T12:41:01.019Z,1336
2017-04-28T12:42:10.073Z,1404
2017-04-28T12:43:19.161Z,1528
2017-04-28T12:44:28.803Z,1724
2017-04-28T12:45:37.903Z,1824
2017-04-28T12:46:46.940Z,2132
2017-04-28T12:47:56.619Z,2464
2017-04-28T12:49:06.221Z,2524
2017-04-28T12:50:14.956Z,2536
2017-04-28T12:51:23.817Z,2660
2017-04-28T12:52:32.915Z,2836
2017-04-28T12:53:42.010Z,3280
2017-04-28T12:54:50.785Z,3664
2017-04-28T12:55:59.516Z,3396
2017-04-28T12:57:08.602Z,2504
2017-04-28T12:58:18.301Z,2216
2017-04-28T12:59:27.643Z,2148
2017-04-28T13:00:36.730Z,2012
2017-04-28T13:01:45.530Z,1708
2017-04-28T13:02:54.936Z,1596
2017-04-28T13:04:04.043Z,1472
2017-04-28T13:05:13.135Z,1428
2017-04-28T13:06:21.914Z,1348
2017-04-28T13:07:30.703Z,1768
2017-04-28T13:08:40.108Z,2264
2017-04-28T13:09:49.202Z,2096
2017-04-28T13:10:58.898Z,1788
2017-04-28T13:12:08.247Z,1488
2017-04-28T13:13:17.544Z,1452
2017-04-28T13:14:26.649Z,1708
2017-04-28T13:15:36.334Z,1940
2017-04-28T13:16:46.037Z,2012
2017-04-28T13:17:54.820Z,2084
2017-04-28T13:19:03.919Z,2212
2017-04-28T13:20:13.015Z,2184
2017-04-28T13:21:22.415Z,1772
2017-04-28T13:22:31.787Z,1352
2017-04-28T13:23:40.879Z,1420
2017-04-28T13:24:50.279Z,1684
2017-04-28T13:25:59.122Z,1388
2017-04-28T13:27:08.171Z,1152
2017-04-28T13:28:18.206Z,1408
2017-04-28T13:29:26.993Z,1300
2017-04-28T13:30:36.092Z,1140
2017-04-28T13:31:45.135Z,1120
2017-04-28T13:32:53.919Z,1188
2017-04-28T13:34:02.976Z,1312
2017-04-28T13:35:12.365Z,1452
2017-04-28T13:36:21.407Z,1332
2017-04-28T13:37:30.513Z,1216
2017-04-28T13:38:39.309Z,1140
2017-04-28T13:39:48.047Z,1232
2017-04-28T13:40:57.441Z,1248
2017-04-28T13:42:06.852Z,1532
2017-04-28T13:43:16.250Z,1600
2017-04-28T13:44:25.355Z,1952
2017-04-28T13:45:34.402Z,1956
2017-04-28T13:46:43.183Z,1764
2017-04-28T13:47:52.578Z,1480
2017-04-28T13:49:01.710Z,1428
2017-04-28T13:50:10.500Z,1640
2017-04-28T13:51:19.904Z,1844
2017-04-28T13:52:29.027Z,1640
2017-04-28T13:53:38.114Z,1968
2017-04-28T13:54:47.147Z,1952
2017-04-28T13:55:55.924Z,2252
2017-04-28T13:57:05.026Z,2136
2017-04-28T13:58:14.124Z,2792
2017-04-28T13:59:23.214Z,2812
2017-04-28T14:00:32.614Z,2740
2017-04-28T14:01:41.649Z,2272
2017-04-28T14:02:50.991Z,2124
2017-04-28T14:04:00.021Z,1924
2017-04-28T14:05:09.107Z,2072
2017-04-28T14:06:18.506Z,2272
2017-04-28T14:07:27.285Z,2336
2017-04-28T14:08:36.072Z,2380
2017-04-28T14:09:44.861Z,2428
2017-04-28T14:10:54.265Z,2348
2017-04-28T14:12:03.349Z,2236
2017-04-28T14:13:12.389Z,2084
2017-04-28T14:14:21.466Z,2000
2017-04-28T14:15:30.562Z,1924
2017-04-28T14:16:39.651Z,1628
2017-04-28T14:17:48.745Z,1544
2017-04-28T14:18:57.833Z,1928
2017-04-28T14:20:06.930Z,1948
2017-04-28T14:21:16.285Z,1872
2017-04-28T14:22:25.375Z,1792
2017-04-28T14:23:34.163Z,1784
2017-04-28T14:24:43.579Z,1792
2017-04-28T14:25:52.623Z,1624
2017-04-28T14:27:01.701Z,1636
2017-04-28T14:28:10.741Z,1552
2017-04-28T14:29:20.075Z,1672
2017-04-28T14:30:29.433Z,1664
2017-04-28T14:31:38.811Z,1700
2017-04-28T14:32:47.906Z,1604
2017-04-28T14:33:56.948Z,1384
2017-04-28T14:35:06.896Z,1424
2017-04-28T14:36:15.674Z,1612
2017-04-28T14:37:25.070Z,1624
2017-04-28T14:38:34.473Z,1656
2017-04-28T14:39:43.567Z,1704
2017-04-28T14:40:52.610Z,1800
2017-04-28T14:42:01.694Z,1880
2017-04-28T14:43:11.388Z,1868
2017-04-28T14:44:20.429Z,1808
2017-04-28T14:45:29.506Z,1672
2017-04-28T14:46:38.234Z,1592
2017-04-28T14:47:47.315Z,1668
2017-04-28T14:48:56.109Z,1676
2017-04-28T14:50:05.203Z,1660
2017-04-28T14:51:14.613Z,1572
2017-04-28T14:52:23.343Z,1448
2017-04-28T14:53:32.115Z,1488
2017-04-28T14:54:41.212Z,1468
2017-04-28T14:55:51.226Z,1328
2017-04-28T14:57:00.359Z,1240
2017-04-28T14:58:09.747Z,1192
2017-04-28T14:59:18.837Z,1280
2017-04-28T15:00:27.573Z,1328
2017-04-28T15:01:36.648Z,1372
2017-04-28T15:02:45.742Z,1360
2017-04-28T15:03:55.118Z,1324
2017-04-28T15:05:04.217Z,1316
2017-04-28T15:06:13.629Z,1360
2017-04-28T15:07:22.662Z,1336
2017-04-28T15:08:32.059Z,1256
2017-04-28T15:09:40.802Z,1244
2017-04-28T15:10:49.876Z,1204
2017-04-28T15:11:58.921Z,1164
2017-04-28T15:13:08.316Z,1172
2017-04-28T15:14:17.413Z,1136
2017-04-28T15:15:27.055Z,1156
2017-04-28T15:16:36.140Z,1200
2017-04-28T15:17:45.507Z,1168
2017-04-28T15:18:54.537Z,1136
2017-04-28T15:20:03.945Z,1176
2017-04-28T15:21:13.040Z,1212
2017-04-28T15:22:22.376Z,1244
2017-04-28T15:23:31.471Z,1224
2017-04-28T15:24:40.876Z,1224
2017-04-28T15:25:49.657Z,1184
2017-04-28T15:26:58.747Z,1116
2017-04-28T15:28:07.783Z,1032
2017-04-28T15:29:17.174Z,1024
2017-04-28T15:30:26.266Z,1060
2017-04-28T15:31:35.066Z,1044
2017-04-28T15:32:44.468Z,1000
2017-04-28T15:33:53.264Z,992
2017-04-28T15:35:02.386Z,1004
2017-04-28T15:36:11.782Z,1048
2017-04-28T15:37:20.901Z,1092
2017-04-28T15:38:29.991Z,1092
2017-04-28T15:39:39.371Z,1028
2017-04-28T15:40:48.465Z,992
2017-04-28T15:41:57.259Z,976
2017-04-28T15:43:05.993Z,924
2017-04-28T15:44:14.789Z,876
2017-04-28T15:45:23.882Z,884
2017-04-28T15:46:32.974Z,872
2017-04-28T15:47:42.075Z,884
2017-04-28T15:48:51.062Z,912
2017-04-28T15:49:59.803Z,904